Time;durP1;ratioP1;P1;durP2;ratioP2;P2;SDS_P1;SDS_P2;PMS_P1;PMS_P2;Temp;Humidity;BMP_temperature;BMP_pressure;BME280_temperature;BME280_humidity;BME280_pressure;Samples;Min_cycle;Max_cycle;Signal;HPM_P1;HPM_P2
2023/06/20 00:01:34;;;;;;;;;;;;;;;;;;5014681;28;19925;-80
2023/06/20 00:04:00;;;;;;;;;;;;;;;;;;5015600;28;19936;-80
2023/06/20 00:06:27;;;;;;;;;;;;;;;;;;5014602;28;19929;-80
2023/06/20 00:08:53;;;;;;;;;;;;;;;;;;5016293;28;19926;-80
2023/06/20 00:11:19;;;;;;;;;;;;;;;;;;5015149;28;19925;-80
2023/06/20 00:13:46;;;;;;;;;;;;;;;;;;5015821;28;19932;-80
2023/06/20 00:16:14;;;;;;;;;;;;;;;;;;5015951;28;20393;-80
2023/06/20 00:18:40;;;;;;;;;;;;;;;;;;5015110;28;20401;-80
2023/06/20 00:21:06;;;;;;;;;;;;;;;;;;5015101;28;19926;-80
2023/06/20 00:23:33;;;;;;;;;;;;;;;;;;5015296;28;19925;-80
2023/06/20 00:25:59;;;;;;;;;;;;;;;;;;5015541;28;20312;-80
2023/06/20 00:28:25;;;;;;;;;;;;;;;;;;5014762;28;19926;-80
2023/06/20 00:30:52;;;;;;;;;;;;;;;;;;5015464;28;19937;-80
2023/06/20 00:33:19;;;;;;;;;;;;;;;;;;5015021;28;19925;-80
2023/06/20 00:35:46;;;;;;;;;;;;;;;;;;5015393;28;19925;-81
2023/06/20 00:38:12;;;;;;;;;;;;;;;;;;5015255;28;19925;-81
2023/06/20 00:40:38;;;;;;;;;;;;;;;;;;5015403;28;20288;-80
2023/06/20 00:43:05;;;;;;;;;;;;;;;;;;5015418;28;19926;-80
2023/06/20 00:45:32;;;;;;;;;;;;;;;;;;5014714;28;19925;-80
2023/06/20 00:47:59;;;;;;;;;;;;;;;;;;5014737;28;20024;-80
2023/06/20 00:50:27;;;;;;;;;;;;;;;;;;5014144;28;20184;-80
2023/06/20 00:52:59;;;;;;;;;;;;;;;;;;5015130;28;19929;-80
2023/06/20 00:55:26;;;;;;;;;;;;;;;;;;5014583;28;19971;-80
2023/06/20 00:57:53;;;;;;;;;;;;;;;;;;5014944;28;20412;-80
2023/06/20 01:00:20;;;;;;;;;;;;;;;;;;5013858;28;19965;-79
2023/06/20 01:02:46;;;;;;;;;;;;;;;;;;5015137;28;19926;-80
2023/06/20 01:05:13;;;;;;;;;;;;;;;;;;5014932;28;19948;-80
2023/06/20 01:07:43;;;;;;;;;;;;;;;;;;5016880;28;19948;-80
2023/06/20 01:10:16;;;;;;;;;;;;;;;;;;5018121;28;19926;-80
2023/06/20 01:12:45;;;;;;;;;;;;;;;;;;5018810;28;19936;-80
2023/06/20 01:15:16;;;;;;;;;;;;;;;;;;5018144;28;19936;-80
2023/06/20 01:17:46;;;;;;;;;;;;;;;;;;5018999;28;19929;-80
2023/06/20 01:20:16;;;;;;;;;;;;;;;;;;5018309;28;19933;-80
2023/06/20 01:23:01;;;;;;;;;;;;;;;;;;5019089;28;19987;-80
2023/06/20 01:25:32;;;;;;;;;;;;;;;;;;5018568;28;19948;-80
2023/06/20 01:28:04;;;;;;;;;;;;;;;;;;5018501;28;19925;-79
2023/06/20 01:30:34;;;;;;;;;;;;;;;;;;5017854;28;19926;-80
2023/06/20 01:33:02;;;;;;;;;;;;;;;;;;5018715;28;19932;-80
2023/06/20 01:35:30;;;;;;;;;;;;;;;;;;5017660;28;19926;-80
2023/06/20 01:37:58;;;;;;;;;;;;;;;;;;5017941;28;19925;-80
2023/06/20 01:40:25;;;;;;;;;;;;;;;;;;5017325;28;19932;-80
2023/06/20 01:42:55;;;;;;;;;;;;;;;;;;5017901;28;20285;-80
2023/06/20 01:45:22;;;;;;;;;;;;;;;;;;5017679;28;19932;-80
2023/06/20 01:47:49;;;;;;;;;;;;;;;;;;5017451;28;19933;-80
2023/06/20 01:50:16;;;;;;;;;;;;;;;;;;5015945;28;20005;-80
2023/06/20 01:52:43;;;;;;;;;;;;;;;;;;5014724;28;19981;-81
2023/06/20 01:55:10;;;;;;;;;;;;;;;;;;5017222;28;19981;-80
2023/06/20 01:57:37;;;;;;;;;;;;;;;;;;5017274;28;19926;-80
2023/06/20 02:00:08;;;;;;;;;;;;;;;;;;5017037;28;20012;-80
2023/06/20 02:02:35;;;;;;;;;;;;;;;;;;5016406;28;19926;-80
2023/06/20 02:05:03;;;;;;;;;;;;;;;;;;5017829;28;19925;-79
2023/06/20 02:07:30;;;;;;;;;;;;;;;;;;5017724;28;19925;-80
2023/06/20 02:09:58;;;;;;;;;;;;;;;;;;5016796;28;20147;-80
2023/06/20 02:12:25;;;;;;;;;;;;;;;;;;5017896;28;19929;-80
2023/06/20 02:14:52;;;;;;;;;;;;;;;;;;5016749;28;19925;-80
2023/06/20 02:17:20;;;;;;;;;;;;;;;;;;5016852;28;19925;-80
2023/06/20 02:19:47;;;;;;;;;;;;;;;;;;5016514;28;19926;-80
2023/06/20 02:22:15;;;;;;;;;;;;;;;;;;5016983;28;19992;-80
2023/06/20 02:24:43;;;;;;;;;;;;;;;;;;5014628;28;19925;-80
2023/06/20 02:27:12;;;;;;;;;;;;;;;;;;5017099;28;19925;-80
2023/06/20 02:29:39;;;;;;;;;;;;;;;;;;5016142;28;19929;-80
2023/06/20 02:32:07;;;;;;;;;;;;;;;;;;5017016;28;19929;-80
2023/06/20 02:34:35;;;;;;;;;;;;;;;;;;5016777;28;19932;-80
2023/06/20 02:37:03;;;;;;;;;;;;;;;;;;5017298;28;19926;-80
2023/06/20 02:39:30;;;;;;;;;;;;;;;;;;5016906;28;20392;-80
2023/06/20 02:41:57;;;;;;;;;;;;;;;;;;5016676;28;19925;-80
2023/06/20 02:44:24;;;;;;;;;;;;;;;;;;5003859;28;19926;-80
2023/06/20 02:46:56;;;;;;;;;;;;;;;;;;5009137;28;19925;-80
2023/06/20 02:49:25;;;;;;;;;;;;;;;;;;5017654;28;19947;-80
2023/06/20 02:51:59;;;;;;;;;;;;;;;;;;5016646;28;19932;-80
2023/06/20 02:54:29;;;;;;;;;;;;;;;;;;5006900;28;19932;-80
2023/06/20 02:56:56;;;;;;;;;;;;;;;;;;4998431;28;19926;-80
2023/06/20 02:59:24;;;;;;;;;;;;;;;;;;4997615;28;19936;-80
2023/06/20 03:01:53;;;;;;;;;;;;;;;;;;4998580;28;19926;-80
2023/06/20 03:04:20;;;;;;;;;;;;;;;;;;4998421;28;20015;-79
2023/06/20 03:06:50;;;;;;;;;;;;;;;;;;5002378;28;19958;-80
2023/06/20 03:09:19;;;;;;;;;;;;;;;;;;5003533;28;19925;-80
2023/06/20 03:11:46;;;;;;;;;;;;;;;;;;4996006;28;20428;-80
2023/06/20 03:14:13;;;;;;;;;;;;;;;;;;4996109;28;19930;-81
2023/06/20 03:16:42;;;;;;;;;;;;;;;;;;5005833;28;19925;-80
2023/06/20 03:19:09;;;;;;;;;;;;;;;;;;5015805;28;19925;-80
2023/06/20 03:21:35;;;;;;;;;;;;;;;;;;5016092;28;20021;-80
2023/06/20 03:24:01;;;;;;;;;;;;;;;;;;5016222;28;19925;-80
2023/06/20 03:26:29;;;;;;;;;;;;;;;;;;5015788;28;19926;-80
2023/06/20 03:28:56;;;;;;;;;;;;;;;;;;5016000;28;19925;-79
2023/06/20 03:31:22;;;;;;;;;;;;;;;;;;5013037;28;19932;-80
2023/06/20 03:33:48;;;;;;;;;;;;;;;;;;5014115;28;19948;-80
2023/06/20 03:36:15;;;;;;;;;;;;;;;;;;5013626;28;19926;-80
2023/06/20 03:38:42;;;;;;;;;;;;;;;;;;5014035;28;19929;-80
2023/06/20 03:41:08;;;;;;;;;;;;;;;;;;5013297;28;19933;-79
2023/06/20 03:43:36;;;;;;;;;;;;;;;;;;5013729;28;19925;-79
2023/06/20 03:46:02;;;;;;;;;;;;;;;;;;5012459;28;19925;-80
2023/06/20 03:48:28;;;;;;;;;;;;;;;;;;5014148;28;20131;-80
2023/06/20 03:50:55;;;;;;;;;;;;;;;;;;5013336;28;19925;-80
2023/06/20 03:53:21;;;;;;;;;;;;;;;;;;5013758;28;19925;-80
2023/06/20 03:55:48;;;;;;;;;;;;;;;;;;5013590;28;19926;-80
2023/06/20 03:58:14;;;;;;;;;;;;;;;;;;5013964;28;19975;-80
2023/06/20 04:00:42;;;;;;;;;;;;;;;;;;5013519;28;20016;-80
2023/06/20 04:03:08;;;;;;;;;;;;;;;;;;5013488;28;19945;-80
2023/06/20 04:05:35;;;;;;;;;;;;;;;;;;5012227;28;21092;-80
2023/06/20 04:08:01;;;;;;;;;;;;;;;;;;5005126;28;19926;-80
2023/06/20 04:10:28;;;;;;;;;;;;;;;;;;4993699;28;20031;-79
2023/06/20 04:12:54;;;;;;;;;;;;;;;;;;4993423;28;19932;-80
2023/06/20 04:15:21;;;;;;;;;;;;;;;;;;4993887;28;20021;-80
2023/06/20 04:17:48;;;;;;;;;;;;;;;;;;4993773;28;19926;-80
2023/06/20 04:20:15;;;;;;;;;;;;;;;;;;4993107;28;19932;-79
2023/06/20 04:22:44;;;;;;;;;;;;;;;;;;4993649;28;19926;-80
2023/06/20 04:25:10;;;;;;;;;;;;;;;;;;4994096;28;19933;-80
2023/06/20 04:27:37;;;;;;;;;;;;;;;;;;4994186;28;19932;-80
2023/06/20 04:30:05;;;;;;;;;;;;;;;;;;4993183;28;19933;-80
2023/06/20 04:32:31;;;;;;;;;;;;;;;;;;5009608;28;19925;-80
2023/06/20 04:34:59;;;;;;;;;;;;;;;;;;5013533;28;20308;-80
2023/06/20 04:37:25;;;;;;;;;;;;;;;;;;5013198;28;19932;-80
2023/06/20 04:39:52;;;;;;;;;;;;;;;;;;5012864;28;19932;-80
2023/06/20 04:42:18;;;;;;;;;;;;;;;;;;5014278;28;19925;-80
2023/06/20 04:44:45;;;;;;;;;;;;;;;;;;5017253;28;20403;-80
2023/06/20 04:47:12;;;;;;;;;;;;;;;;;;5017600;28;20016;-80
2023/06/20 04:49:40;;;;;;;;;;;;;;;;;;5017079;28;19926;-80
2023/06/20 04:52:07;;;;;;;;;;;;;;;;;;5017290;28;19925;-79
2023/06/20 04:54:34;;;;;;;;;;;;;;;;;;5017100;28;19936;-80
2023/06/20 04:57:02;;;;;;;;;;;;;;;;;;5017606;28;19925;-80
2023/06/20 04:59:28;;;;;;;;;;;;;;;;;;5017358;28;19925;-80
2023/06/20 05:01:55;;;;;;;;;;;;;;;;;;5016027;28;20293;-80
2023/06/20 05:04:22;;;;;;;;;;;;;;;;;;5016782;28;19931;-80
2023/06/20 05:06:48;;;;;;;;;;;;;;;;;;5016028;28;19926;-79
2023/06/20 05:09:16;;;;;;;;;;;;;;;;;;5017233;28;19926;-80
2023/06/20 05:11:43;;;;;;;;;;;;;;;;;;5016138;28;20528;-80
2023/06/20 05:14:09;;;;;;;;;;;;;;;;;;5016687;28;19932;-80
2023/06/20 05:16:36;;;;;;;;;;;;;;;;;;5016951;28;20385;-80
2023/06/20 05:19:02;;;;;;;;;;;;;;;;;;5017221;28;20171;-80
2023/06/20 05:21:28;;;;;;;;;;;;;;;;;;5016290;28;19926;-80
2023/06/20 05:23:55;;;;;;;;;;;;;;;;;;5016393;28;19933;-80
2023/06/20 05:26:22;;;;;;;;;;;;;;;;;;5016105;28;20012;-80
2023/06/20 05:28:49;;;;;;;;;;;;;;;;;;5016107;28;19926;-80
2023/06/20 05:31:15;;;;;;;;;;;;;;;;;;5015369;28;19925;-80
2023/06/20 05:33:41;;;;;;;;;;;;;;;;;;5016218;28;19925;-79
2023/06/20 05:36:08;;;;;;;;;;;;;;;;;;5016897;28;19925;-80
2023/06/20 05:38:36;;;;;;;;;;;;;;;;;;5015687;28;19945;-80
2023/06/20 05:41:02;;;;;;;;;;;;;;;;;;5015846;28;20032;-81
2023/06/20 05:43:33;;;;;;;;;;;;;;;;;;5015647;28;20316;-80
2023/06/20 05:45:59;;;;;;;;;;;;;;;;;;5016463;28;20280;-80
2023/06/20 05:48:25;;;;;;;;;;;;;;;;;;5016269;28;19925;-80
2023/06/20 05:50:52;;;;;;;;;;;;;;;;;;5015847;28;19925;-80
2023/06/20 05:53:20;;;;;;;;;;;;;;;;;;5015220;28;20308;-80
2023/06/20 05:55:49;;;;;;;;;;;;;;;;;;5016089;28;19926;-81
2023/06/20 05:58:15;;;;;;;;;;;;;;;;;;5016077;28;19933;-80
2023/06/20 06:00:44;;;;;;;;;;;;;;;;;;5015314;28;19926;-80
2023/06/20 06:03:10;;;;;;;;;;;;;;;;;;5015783;28;19926;-81
2023/06/20 06:05:37;;;;;;;;;;;;;;;;;;5015888;28;19932;-81
2023/06/20 06:08:03;;;;;;;;;;;;;;;;;;5015149;28;19926;-80
2023/06/20 06:10:30;;;;;;;;;;;;;;;;;;5015173;28;19930;-80
2023/06/20 06:12:56;;;;;;;;;;;;;;;;;;5016080;28;19925;-80
2023/06/20 06:15:22;;;;;;;;;;;;;;;;;;5016180;28;20411;-80
2023/06/20 06:17:50;;;;;;;;;;;;;;;;;;5017430;28;19925;-80
2023/06/20 06:20:19;;;;;;;;;;;;;;;;;;5021258;28;20000;-78
2023/06/20 06:22:45;;;;;;;;;;;;;;;;;;5015890;28;19932;-79
2023/06/20 06:25:12;;;;;;;;;;;;;;;;;;5012105;28;19947;-79
2023/06/20 06:27:39;;;;;;;;;;;;;;;;;;5007816;28;19925;-78
2023/06/20 06:30:06;;;;;;;;;;;;;;;;;;5014741;28;19980;-79
2023/06/20 06:32:35;;;;;;;;;;;;;;;;;;5014420;28;19925;-80
2023/06/20 06:35:03;;;;;;;;;;;;;;;;;;5006774;28;19925;-80
2023/06/20 06:37:30;;;;;;;;;;;;;;;;;;5013377;28;19926;-79
2023/06/20 06:39:58;;;;;;;;;;;;;;;;;;5004570;28;20361;-80
2023/06/20 06:42:24;;;;;;;;;;;;;;;;;;5010465;28;19977;-80
2023/06/20 06:44:51;;;;;;;;;;;;;;;;;;5005786;28;19926;-80
2023/06/20 06:47:17;;;;;;;;;;;;;;;;;;5004536;28;20415;-81
2023/06/20 06:49:44;;;;;;;;;;;;;;;;;;5018116;28;20360;-80
2023/06/20 06:52:12;;;;;;;;;;;;;;;;;;5014663;28;19933;-80
2023/06/20 06:54:38;;;;;;;;;;;;;;;;;;5008349;28;19925;-79
2023/06/20 06:57:05;;;;;;;;;;;;;;;;;;5014054;28;19944;-81
2023/06/20 06:59:31;;;;;;;;;;;;;;;;;;5016653;28;19926;-80
2023/06/20 07:01:58;;;;;;;;;;;;;;;;;;5006857;28;20000;-79
2023/06/20 07:04:24;;;;;;;;;;;;;;;;;;5014972;28;19948;-81
2023/06/20 07:06:51;;;;;;;;;;;;;;;;;;5007909;28;20391;-78
2023/06/20 07:09:19;;;;;;;;;;;;;;;;;;5013248;28;20299;-80
2023/06/20 07:11:45;;;;;;;;;;;;;;;;;;5014946;28;19926;-80
2023/06/20 07:14:12;;;;;;;;;;;;;;;;;;5011602;28;19925;-80
2023/06/20 07:16:38;;;;;;;;;;;;;;;;;;5009146;28;19949;-80
2023/06/20 07:19:04;;;;;;;;;;;;;;;;;;5010323;28;20478;-80
2023/06/20 07:21:31;;;;;;;;;;;;;;;;;;5014135;28;20012;-80
2023/06/20 07:23:57;;;;;;;;;;;;;;;;;;5014319;28;19932;-80
2023/06/20 07:26:26;;;;;;;;;;;;;;;;;;5011219;28;20334;-79
2023/06/20 07:28:52;;;;;;;;;;;;;;;;;;5012340;28;19925;-78
2023/06/20 07:31:19;;;;;;;;;;;;;;;;;;5003851;28;19925;-78
2023/06/20 07:33:45;;;;;;;;;;;;;;;;;;5013864;28;19956;-79
2023/06/20 07:36:12;;;;;;;;;;;;;;;;;;5013471;28;19930;-78
2023/06/20 07:38:38;;;;;;;;;;;;;;;;;;5014062;28;19932;-76
2023/06/20 07:41:05;;;;;;;;;;;;;;;;;;5012598;28;19929;-77
2023/06/20 07:43:32;;;;;;;;;;;;;;;;;;5012384;28;19980;-77
2023/06/20 07:45:59;;;;;;;;;;;;;;;;;;5008998;28;19932;-77
2023/06/20 07:48:27;;;;;;;;;;;;;;;;;;5003994;28;20308;-78
2023/06/20 07:50:53;;;;;;;;;;;;;;;;;;5013726;28;19929;-79
2023/06/20 07:53:19;;;;;;;;;;;;;;;;;;5008069;28;19926;-80
2023/06/20 07:55:46;;;;;;;;;;;;;;;;;;5010710;28;19933;-79
2023/06/20 07:58:12;;;;;;;;;;;;;;;;;;5008380;28;19932;-77
2023/06/20 08:00:40;;;;;;;;;;;;;;;;;;5012470;28;19925;-78
2023/06/20 08:03:07;;;;;;;;;;;;;;;;;;5013560;28;19965;-79
2023/06/20 08:05:33;;;;;;;;;;;;;;;;;;5014684;28;19925;-79
2023/06/20 08:08:00;;;;;;;;;;;;;;;;;;5013636;28;19932;-79
2023/06/20 08:10:26;;;;;;;;;;;;;;;;;;5013755;28;19925;-78
2023/06/20 08:12:52;;;;;;;;;;;;;;;;;;5013687;28;19926;-79
2023/06/20 08:15:19;;;;;;;;;;;;;;;;;;5013726;28;19988;-79
2023/06/20 08:17:46;;;;;;;;;;;;;;;;;;5013147;28;19930;-78
2023/06/20 08:20:13;;;;;;;;;;;;;;;;;;5005330;28;20020;-78
2023/06/20 08:22:39;;;;;;;;;;;;;;;;;;5008807;28;19926;-78
2023/06/20 08:25:06;;;;;;;;;;;;;;;;;;5013194;28;20389;-78
2023/06/20 08:27:33;;;;;;;;;;;;;;;;;;5012962;28;20016;-78
2023/06/20 08:29:59;;;;;;;;;;;;;;;;;;4995315;28;19925;-78
2023/06/20 08:32:25;;;;;;;;;;;;;;;;;;4992602;28;20028;-78
2023/06/20 08:34:53;;;;;;;;;;;;;;;;;;4995754;28;19926;-77
2023/06/20 08:37:21;;;;;;;;;;;;;;;;;;5025435;28;20269;-79
2023/06/20 08:39:48;;;;;;;;;;;;;;;;;;5008450;28;19925;-78
2023/06/20 08:42:14;;;;;;;;;;;;;;;;;;4993494;28;19926;-78
2023/06/20 08:44:41;;;;;;;;;;;;;;;;;;4993541;28;19926;-80
2023/06/20 08:47:07;;;;;;;;;;;;;;;;;;5006345;28;20377;-76
2023/06/20 08:49:34;;;;;;;;;;;;;;;;;;5009995;28;19925;-78
2023/06/20 08:52:03;;;;;;;;;;;;;;;;;;5011928;28;19929;-79
2023/06/20 08:54:31;;;;;;;;;;;;;;;;;;5012617;28;19929;-78
2023/06/20 08:56:59;;;;;;;;;;;;;;;;;;5016898;28;20108;-78
2023/06/20 08:59:26;;;;;;;;;;;;;;;;;;5012594;28;20004;-78
2023/06/20 09:01:52;;;;;;;;;;;;;;;;;;5012826;28;19925;-79
2023/06/20 09:04:18;;;;;;;;;;;;;;;;;;5013345;28;20292;-78
2023/06/20 09:06:47;;;;;;;;;;;;;;;;;;5013892;28;19929;-79
2023/06/20 09:09:16;;;;;;;;;;;;;;;;;;5013504;28;19952;-78
2023/06/20 09:11:47;;;;;;;;;;;;;;;;;;5013013;28;19925;-78
2023/06/20 09:14:15;;;;;;;;;;;;;;;;;;4997819;28;19961;-79
2023/06/20 09:16:42;;;;;;;;;;;;;;;;;;5004098;28;20432;-79
2023/06/20 09:19:08;;;;;;;;;;;;;;;;;;5013306;28;19926;-78
2023/06/20 09:21:36;;;;;;;;;;;;;;;;;;4996977;28;20014;-78
2023/06/20 09:24:03;;;;;;;;;;;;;;;;;;4992969;28;19925;-77
2023/06/20 09:26:31;;;;;;;;;;;;;;;;;;4992330;28;19996;-78
2023/06/20 09:29:07;;;;;;;;;;;;;;;;;;5035107;23;19930;-79
2023/06/20 09:31:40;;;;;;;;;;;;;;;;;;5017255;28;19957;-79
2023/06/20 09:34:09;;;;;;;;;;;;;;;;;;5016913;28;20447;-81
2023/06/20 09:36:35;;;;;;;;;;;;;;;;;;5034983;28;19988;-80
2023/06/20 09:39:03;;;;;;;;;;;;;;;;;;5021647;28;20012;-81
2023/06/20 09:41:30;;;;;;;;;;;;;;;;;;5017522;28;20116;-79
2023/06/20 09:43:57;;;;;;;;;;;;;;;;;;5017869;28;20065;-79
2023/06/20 09:46:23;;;;;;;;;;;;;;;;;;5009720;28;19926;-79
2023/06/20 09:48:50;;;;;;;;;;;;;;;;;;4997018;28;20392;-80
2023/06/20 09:51:17;;;;;;;;;;;;;;;;;;4997481;28;19925;-79
2023/06/20 09:53:45;;;;;;;;;;;;;;;;;;4996874;28;19985;-80
2023/06/20 09:56:12;;;;;;;;;;;;;;;;;;4997314;28;19925;-80
2023/06/20 09:58:41;;;;;;;;;;;;;;;;;;4996833;28;19925;-79
2023/06/20 10:01:10;;;;;;;;;;;;;;;;;;4996444;28;20385;-79
2023/06/20 10:03:38;;;;;;;;;;;;;;;;;;4997272;28;19938;-80
2023/06/20 10:06:04;;;;;;;;;;;;;;;;;;4997049;28;19948;-80
2023/06/20 10:08:31;;;;;;;;;;;;;;;;;;4997098;28;19930;-81
2023/06/20 10:10:58;;;;;;;;;;;;;;;;;;4996635;28;19930;-80
2023/06/20 10:13:25;;;;;;;;;;;;;;;;;;4998080;28;19932;-81
2023/06/20 10:15:53;;;;;;;;;;;;;;;;;;4996860;28;19929;-80
2023/06/20 10:18:20;;;;;;;;;;;;;;;;;;4994684;28;19980;-81
2023/06/20 10:20:46;;;;;;;;;;;;;;;;;;4994601;28;20286;-80
2023/06/20 10:23:13;;;;;;;;;;;;;;;;;;5007744;28;20008;-79
2023/06/20 10:25:49;;;;;;;;;;;;;;;;;;5010547;28;19926;-79
2023/06/20 10:28:19;;;;;;;;;;;;;;;;;;4999939;28;19972;-81
2023/06/20 10:31:03;;;;;;;;;;;;;;;;;;5007235;28;20401;-79
2023/06/20 10:33:32;;;;;;;;;;;;;;;;;;4997336;28;19976;-80
2023/06/20 10:35:59;;;;;;;;;;;;;;;;;;5002602;28;19932;-79
2023/06/20 10:38:26;;;;;;;;;;;;;;;;;;5004692;28;19925;-80
2023/06/20 10:41:12;;;;;;;;;;;;;;;;;;4993493;28;19926;-79
2023/06/20 10:44:02;;;;;;;;;;;;;;;;;;4991630;28;19930;-80
2023/06/20 10:46:29;;;;;;;;;;;;;;;;;;4979211;28;19935;-80
2023/06/20 10:48:57;;;;;;;;;;;;;;;;;;5017737;28;19925;-79
2023/06/20 10:51:24;;;;;;;;;;;;;;;;;;5006289;28;19926;-80
2023/06/20 10:53:50;;;;;;;;;;;;;;;;;;5009161;28;19932;-80
2023/06/20 10:56:23;;;;;;;;;;;;;;;;;;5016975;28;19926;-81
2023/06/20 10:58:50;;;;;;;;;;;;;;;;;;5005573;28;19925;-81
2023/06/20 11:01:17;;;;;;;;;;;;;;;;;;5010176;28;19925;-80
2023/06/20 11:03:45;;;;;;;;;;;;;;;;;;5008976;28;19925;-79
2023/06/20 11:06:16;;;;;;;;;;;;;;;;;;5000816;28;20408;-80
2023/06/20 11:08:43;;;;;;;;;;;;;;;;;;5008755;28;19925;-80
2023/06/20 11:11:10;;;;;;;;;;;;;;;;;;5016069;28;19926;-81
2023/06/20 11:13:39;;;;;;;;;;;;;;;;;;5018679;28;19979;-80
2023/06/20 11:16:05;;;;;;;;;;;;;;;;;;5015807;28;19965;-80
2023/06/20 11:18:32;;;;;;;;;;;;;;;;;;5001977;28;19977;-80
2023/06/20 11:20:59;;;;;;;;;;;;;;;;;;5012318;28;19953;-80
2023/06/20 11:23:34;;;;;;;;;;;;;;;;;;5000595;28;19972;-79
2023/06/20 11:26:01;;;;;;;;;;;;;;;;;;5008930;28;19925;-79
2023/06/20 11:28:27;;;;;;;;;;;;;;;;;;5016861;28;19930;-78
2023/06/20 11:30:53;;;;;;;;;;;;;;;;;;5008355;28;19925;-81
2023/06/20 11:33:20;;;;;;;;;;;;;;;;;;5003700;28;20040;-79
2023/06/20 11:35:49;;;;;;;;;;;;;;;;;;4997516;28;20286;-81
2023/06/20 11:38:18;;;;;;;;;;;;;;;;;;5005956;28;19937;-80
2023/06/20 11:40:46;;;;;;;;;;;;;;;;;;5032699;28;19956;-80
2023/06/20 11:43:23;;;;;;;;;;;;;;;;;;5017054;28;19929;-81
2023/06/20 11:45:49;;;;;;;;;;;;;;;;;;5017201;28;20381;-80
2023/06/20 11:48:16;;;;;;;;;;;;;;;;;;5001721;28;19941;-80
2023/06/20 11:50:43;;;;;;;;;;;;;;;;;;4996813;28;19926;-79
2023/06/20 11:53:18;;;;;;;;;;;;;;;;;;4997032;28;19926;-80
2023/06/20 11:55:46;;;;;;;;;;;;;;;;;;4997003;28;19929;-80
2023/06/20 11:58:12;;;;;;;;;;;;;;;;;;4997053;28;19980;-80
2023/06/20 12:00:39;;;;;;;;;;;;;;;;;;4996021;28;19981;-81
2023/06/20 12:03:08;;;;;;;;;;;;;;;;;;4976993;28;20078;-81
2023/06/20 12:05:35;;;;;;;;;;;;;;;;;;4979451;28;19933;-81
2023/06/20 12:08:02;;;;;;;;;;;;;;;;;;5003097;28;19976;-81
2023/06/20 12:10:28;;;;;;;;;;;;;;;;;;4996514;28;19973;-80
2023/06/20 12:12:56;;;;;;;;;;;;;;;;;;4996636;28;19925;-79
2023/06/20 12:15:23;;;;;;;;;;;;;;;;;;4996426;28;19925;-80
2023/06/20 12:17:49;;;;;;;;;;;;;;;;;;4996766;28;19948;-79
2023/06/20 12:20:15;;;;;;;;;;;;;;;;;;4995332;28;19925;-81
2023/06/20 12:22:42;;;;;;;;;;;;;;;;;;4995595;28;20221;-80
2023/06/20 12:25:08;;;;;;;;;;;;;;;;;;4995406;28;19934;-80
2023/06/20 12:27:35;;;;;;;;;;;;;;;;;;5009598;28;19932;-81
2023/06/20 12:30:03;;;;;;;;;;;;;;;;;;5015317;28;19947;-81
2023/06/20 12:32:29;;;;;;;;;;;;;;;;;;5015801;28;20273;-81
2023/06/20 12:34:56;;;;;;;;;;;;;;;;;;5016743;28;19925;-80
2023/06/20 12:37:23;;;;;;;;;;;;;;;;;;5016231;28;19925;-81
2023/06/20 12:39:50;;;;;;;;;;;;;;;;;;5016070;28;19925;-81
2023/06/20 12:42:18;;;;;;;;;;;;;;;;;;5015920;28;19925;-81
2023/06/20 12:44:45;;;;;;;;;;;;;;;;;;5016965;28;20016;-81
2023/06/20 12:47:12;;;;;;;;;;;;;;;;;;5015986;28;19932;-81
2023/06/20 12:49:39;;;;;;;;;;;;;;;;;;5015758;28;19925;-81
2023/06/20 12:52:08;;;;;;;;;;;;;;;;;;5016151;28;19965;-80
2023/06/20 12:54:34;;;;;;;;;;;;;;;;;;5016378;28;19925;-81
2023/06/20 12:57:01;;;;;;;;;;;;;;;;;;5016568;28;19929;-80
2023/06/20 12:59:27;;;;;;;;;;;;;;;;;;5015326;28;20016;-79
2023/06/20 13:01:53;;;;;;;;;;;;;;;;;;5016178;28;19988;-80
2023/06/20 13:04:21;;;;;;;;;;;;;;;;;;5017724;28;19925;-80
2023/06/20 13:06:48;;;;;;;;;;;;;;;;;;5019189;28;20157;-80
2023/06/20 13:09:14;;;;;;;;;;;;;;;;;;5020391;28;20351;-80
2023/06/20 13:11:40;;;;;;;;;;;;;;;;;;5020544;28;19989;-81
2023/06/20 13:14:07;;;;;;;;;;;;;;;;;;5020257;28;20291;-81
2023/06/20 13:16:33;;;;;;;;;;;;;;;;;;5020573;28;19932;-81
2023/06/20 13:19:01;;;;;;;;;;;;;;;;;;5020929;28;19959;-80
2023/06/20 13:21:29;;;;;;;;;;;;;;;;;;5019167;28;19925;-81
2023/06/20 13:23:55;;;;;;;;;;;;;;;;;;5020124;28;19925;-81
2023/06/20 13:26:22;;;;;;;;;;;;;;;;;;5019044;28;19925;-80
2023/06/20 13:28:48;;;;;;;;;;;;;;;;;;5018502;28;19932;-81
2023/06/20 13:31:15;;;;;;;;;;;;;;;;;;5018087;28;19932;-80
2023/06/20 13:33:41;;;;;;;;;;;;;;;;;;5018968;28;19925;-81
2023/06/20 13:36:08;;;;;;;;;;;;;;;;;;5019160;28;19926;-81
2023/06/20 13:38:36;;;;;;;;;;;;;;;;;;5018334;28;19932;-81
2023/06/20 13:41:02;;;;;;;;;;;;;;;;;;5018498;28;19926;-81
2023/06/20 13:43:28;;;;;;;;;;;;;;;;;;5025745;28;19925;-81
2023/06/20 13:45:55;;;;;;;;;;;;;;;;;;5030859;28;20388;-79
2023/06/20 13:48:21;;;;;;;;;;;;;;;;;;5018390;28;20020;-81
2023/06/20 13:50:48;;;;;;;;;;;;;;;;;;5020874;28;19925;-79
2023/06/20 13:53:14;;;;;;;;;;;;;;;;;;5018874;28;19929;-79
2023/06/20 13:55:44;;;;;;;;;;;;;;;;;;5019347;28;19926;-81
2023/06/20 13:58:10;;;;;;;;;;;;;;;;;;5018151;28;19929;-81
2023/06/20 14:00:38;;;;;;;;;;;;;;;;;;5018602;28;19993;-81
2023/06/20 14:03:05;;;;;;;;;;;;;;;;;;5017933;28;19948;-81
2023/06/20 14:05:31;;;;;;;;;;;;;;;;;;5018985;28;19925;-81
2023/06/20 14:07:58;;;;;;;;;;;;;;;;;;5018776;28;20492;-80
2023/06/20 14:10:24;;;;;;;;;;;;;;;;;;5018322;28;19925;-80
2023/06/20 14:12:52;;;;;;;;;;;;;;;;;;5018800;28;19925;-80
2023/06/20 14:15:18;;;;;;;;;;;;;;;;;;5017546;28;19932;-81
2023/06/20 14:17:45;;;;;;;;;;;;;;;;;;5017633;28;20377;-79
2023/06/20 14:20:12;;;;;;;;;;;;;;;;;;5018723;28;20045;-79
2023/06/20 14:22:38;;;;;;;;;;;;;;;;;;5017352;28;19932;-80
2023/06/20 14:25:05;;;;;;;;;;;;;;;;;;5017099;28;19925;-79
2023/06/20 14:27:31;;;;;;;;;;;;;;;;;;5017510;28;19925;-80
2023/06/20 14:29:59;;;;;;;;;;;;;;;;;;5016540;28;19937;-80
2023/06/20 14:32:26;;;;;;;;;;;;;;;;;;5017453;28;19925;-80
2023/06/20 14:34:52;;;;;;;;;;;;;;;;;;5016709;28;20414;-80
2023/06/20 14:37:19;;;;;;;;;;;;;;;;;;5017396;28;20016;-80
2023/06/20 14:39:46;;;;;;;;;;;;;;;;;;5015919;28;20271;-81
2023/06/20 14:42:13;;;;;;;;;;;;;;;;;;5017059;28;19926;-80
2023/06/20 14:44:40;;;;;;;;;;;;;;;;;;5016157;28;20354;-79
2023/06/20 14:47:08;;;;;;;;;;;;;;;;;;5016993;28;19973;-80
2023/06/20 14:49:35;;;;;;;;;;;;;;;;;;5016934;28;19936;-80
2023/06/20 14:52:01;;;;;;;;;;;;;;;;;;5016666;28;19936;-80
2023/06/20 14:54:28;;;;;;;;;;;;;;;;;;5015570;28;19926;-80
2023/06/20 14:56:54;;;;;;;;;;;;;;;;;;5017003;28;19933;-80
2023/06/20 14:59:22;;;;;;;;;;;;;;;;;;5017144;28;20020;-80
2023/06/20 15:01:49;;;;;;;;;;;;;;;;;;5017202;28;19925;-80
2023/06/20 15:04:17;;;;;;;;;;;;;;;;;;5016887;28;19925;-80
2023/06/20 15:06:43;;;;;;;;;;;;;;;;;;5016019;28;20008;-80
2023/06/20 15:09:10;;;;;;;;;;;;;;;;;;5016122;28;19925;-80
2023/06/20 15:11:36;;;;;;;;;;;;;;;;;;5016015;28;20400;-80
2023/06/20 15:14:03;;;;;;;;;;;;;;;;;;5016980;28;19925;-80
2023/06/20 15:16:29;;;;;;;;;;;;;;;;;;5015814;28;20296;-80
2023/06/20 15:18:55;;;;;;;;;;;;;;;;;;5015920;28;19932;-80
2023/06/20 15:21:23;;;;;;;;;;;;;;;;;;5014592;28;20401;-80
2023/06/20 15:23:50;;;;;;;;;;;;;;;;;;5015279;28;20377;-80
2023/06/20 15:26:16;;;;;;;;;;;;;;;;;;5014575;28;20025;-80
2023/06/20 15:28:45;;;;;;;;;;;;;;;;;;5038099;22;19925;-77
2023/06/20 15:31:12;;;;;;;;;;;;;;;;;;5031793;28;20108;-80
2023/06/20 15:33:38;;;;;;;;;;;;;;;;;;5032908;28;20014;-78
2023/06/20 15:36:05;;;;;;;;;;;;;;;;;;5032842;28;19925;-77
2023/06/20 15:38:42;;;;;;;;;;;;;;;;;;5033516;28;20042;-77
2023/06/20 15:41:08;;;;;;;;;;;;;;;;;;5012729;28;19926;-78
2023/06/20 15:43:36;;;;;;;;;;;;;;;;;;5014006;28;20020;-78
2023/06/20 15:46:07;;;;;;;;;;;;;;;;;;5015201;28;19932;-78
2023/06/20 15:48:37;;;;;;;;;;;;;;;;;;5013527;28;19925;-78
2023/06/20 15:51:04;;;;;;;;;;;;;;;;;;5013956;28;19925;-78
2023/06/20 15:53:32;;;;;;;;;;;;;;;;;;5014545;28;20036;-77
2023/06/20 15:56:03;;;;;;;;;;;;;;;;;;5013444;28;19933;-76
2023/06/20 15:58:30;;;;;;;;;;;;;;;;;;5013561;28;19925;-76
2023/06/20 16:01:05;;;;;;;;;;;;;;;;;;5012591;28;19925;-76
2023/06/20 16:03:31;;;;;;;;;;;;;;;;;;5012891;28;19995;-77
2023/06/20 16:05:58;;;;;;;;;;;;;;;;;;5013666;28;19925;-78
2023/06/20 16:08:24;;;;;;;;;;;;;;;;;;5013178;28;19980;-76
2023/06/20 16:10:52;;;;;;;;;;;;;;;;;;5012657;28;19973;-77
2023/06/20 16:13:18;;;;;;;;;;;;;;;;;;5012856;28;19972;-77
2023/06/20 16:15:45;;;;;;;;;;;;;;;;;;5012983;28;19980;-77
2023/06/20 16:18:11;;;;;;;;;;;;;;;;;;5012474;28;19925;-77
2023/06/20 16:20:38;;;;;;;;;;;;;;;;;;5012634;28;19975;-77
2023/06/20 16:23:04;;;;;;;;;;;;;;;;;;5012307;28;19965;-77
2023/06/20 16:25:31;;;;;;;;;;;;;;;;;;5012861;28;19979;-77
2023/06/20 16:28:15;;;;;;;;;;;;;;;;;;5013892;28;20020;-77
2023/06/20 16:30:43;;;;;;;;;;;;;;;;;;5011635;28;19960;-77
2023/06/20 16:36:03;;;;;;;;;;;;;;;;;;5013774;28;19932;-78
2023/06/20 16:38:30;;;;;;;;;;;;;;;;;;5019435;28;19935;-78
2023/06/20 16:41:08;;;;;;;;;;;;;;;;;;5020005;28;19925;-78
2023/06/20 16:43:34;;;;;;;;;;;;;;;;;;5020396;28;20304;-78
2023/06/20 16:46:02;;;;;;;;;;;;;;;;;;5020342;28;19930;-78
2023/06/20 16:48:28;;;;;;;;;;;;;;;;;;5020256;28;20381;-78
2023/06/20 16:50:54;;;;;;;;;;;;;;;;;;5020293;28;20296;-78